createdAt,value
2023-04-05T00:01:07.754Z,14.36
2023-04-05T00:03:36.232Z,14.20
2023-04-05T00:06:05.533Z,14.18
2023-04-05T00:08:33.601Z,14.21
2023-04-05T00:11:01.836Z,14.25
2023-04-05T00:13:30.564Z,14.30
2023-04-05T00:16:01.325Z,14.29
2023-04-05T00:18:34.385Z,14.27
2023-04-05T00:21:02.624Z,14.30
2023-04-05T00:23:39.772Z,14.32
2023-04-05T00:26:07.901Z,14.30
2023-04-05T00:28:36.911Z,14.30
2023-04-05T00:31:05.619Z,14.31
2023-04-05T00:33:35.365Z,14.32
2023-04-05T00:36:11.410Z,14.34
2023-04-05T00:38:39.623Z,14.26
2023-04-05T00:41:07.621Z,14.23
2023-04-05T00:43:35.586Z,14.15
2023-04-05T00:46:03.665Z,14.16
2023-04-05T00:48:31.875Z,14.25
2023-04-05T00:51:01.220Z,14.32
2023-04-05T00:53:29.166Z,14.36
2023-04-05T00:55:57.728Z,14.35
2023-04-05T00:58:25.906Z,14.38
2023-04-05T01:00:59.436Z,14.40
2023-04-05T01:03:27.672Z,14.41
2023-04-05T01:06:00.503Z,14.42
2023-04-05T01:08:35.285Z,14.45
2023-04-05T01:11:05.577Z,14.46
2023-04-05T01:13:33.807Z,14.48
2023-04-05T01:16:01.835Z,14.51
2023-04-05T01:18:31.171Z,14.47
2023-04-05T01:21:03.079Z,14.35
2023-04-05T01:23:38.971Z,14.22
2023-04-05T01:26:32.786Z,14.11
2023-04-05T01:29:19.079Z,14.05
2023-04-05T01:31:48.694Z,13.99
2023-04-05T01:34:20.324Z,14.04
2023-04-05T01:36:51.441Z,14.12
2023-04-05T01:39:20.801Z,14.21
2023-04-05T01:41:48.723Z,14.24
2023-04-05T01:44:16.980Z,14.25
2023-04-05T01:46:46.408Z,14.24
2023-04-05T01:49:14.621Z,14.29
2023-04-05T01:51:42.796Z,14.29
2023-04-05T01:54:10.903Z,14.25
2023-04-05T01:56:38.856Z,14.21
2023-04-05T01:59:06.846Z,14.21
2023-04-05T02:01:34.829Z,14.24
2023-04-05T02:04:04.132Z,14.28
2023-04-05T02:06:32.367Z,14.33
2023-04-05T02:09:03.139Z,14.36
2023-04-05T02:11:31.287Z,14.38
2023-04-05T02:14:00.410Z,14.41
2023-04-05T02:16:28.554Z,14.41
2023-04-05T02:18:59.802Z,14.43
2023-04-05T02:21:30.013Z,14.47
2023-04-05T02:23:58.152Z,14.48
2023-04-05T02:26:26.280Z,14.47
2023-04-05T02:28:54.415Z,14.48
2023-04-05T02:31:22.618Z,14.43
2023-04-05T02:33:50.530Z,14.50
2023-04-05T02:36:18.566Z,14.48
2023-04-05T02:38:48.056Z,14.51
2023-04-05T02:41:16.085Z,14.50
2023-04-05T02:43:44.072Z,14.49
2023-04-05T02:46:12.072Z,14.49
2023-04-05T02:48:43.426Z,14.48
2023-04-05T02:51:13.442Z,14.45
2023-04-05T02:53:42.520Z,14.44
2023-04-05T02:56:14.863Z,14.44
2023-04-05T02:58:47.866Z,14.46
2023-04-05T03:01:17.933Z,14.47
2023-04-05T03:03:47.072Z,14.48
2023-04-05T03:06:17.111Z,14.50
2023-04-05T03:08:49.836Z,14.48
2023-04-05T03:11:28.204Z,14.48
2023-04-05T03:13:59.591Z,14.50
2023-04-05T03:16:46.633Z,14.51
2023-04-05T03:19:32.111Z,14.49
2023-04-05T03:22:10.582Z,14.49
2023-04-05T03:24:39.586Z,14.49
2023-04-05T03:27:15.181Z,14.51
2023-04-05T03:30:07.572Z,14.48
2023-04-05T03:32:40.918Z,14.47
2023-04-05T03:35:21.617Z,14.49
2023-04-05T03:37:49.927Z,14.48
2023-04-05T03:40:19.167Z,14.49
2023-04-05T03:42:50.266Z,14.47
2023-04-05T03:45:23.010Z,14.47
2023-04-05T03:47:53.168Z,14.48
2023-04-05T03:50:21.917Z,14.45
2023-04-05T03:52:50.189Z,14.40
2023-04-05T03:55:18.651Z,14.38
2023-04-05T03:57:48.958Z,14.35
2023-04-05T04:00:37.247Z,14.32
2023-04-05T04:03:26.021Z,14.30
2023-04-05T04:05:54.211Z,14.28
2023-04-05T04:08:22.435Z,14.29
2023-04-05T04:10:50.821Z,14.30
2023-04-05T04:13:41.117Z,14.26
2023-04-05T04:16:44.680Z,14.24
2023-04-05T04:19:40.447Z,14.23
2023-04-05T04:22:26.864Z,14.20
2023-04-05T04:25:14.698Z,14.14
2023-04-05T04:28:06.723Z,14.06
2023-04-05T04:30:50.489Z,14.03
2023-04-05T04:33:38.072Z,13.94
2023-04-05T04:36:14.867Z,13.91
2023-04-05T04:39:02.609Z,13.90
2023-04-05T04:42:05.977Z,13.90
2023-04-05T04:45:04.344Z,13.96
2023-04-05T04:47:50.061Z,13.99
2023-04-05T04:50:40.861Z,14.04
2023-04-05T04:53:08.919Z,14.05
2023-04-05T04:55:39.513Z,14.05
2023-04-05T04:58:10.258Z,14.07
2023-04-05T05:00:40.255Z,14.10
2023-04-05T05:03:11.419Z,14.08
2023-04-05T05:05:43.640Z,14.08
2023-04-05T05:08:11.782Z,14.09
2023-04-05T05:10:41.522Z,14.07
2023-04-05T05:13:11.557Z,14.04
2023-04-05T05:15:40.958Z,14.04
2023-04-05T05:18:10.524Z,14.03
2023-04-05T05:20:38.698Z,14.01
2023-04-05T05:23:06.821Z,14.00
2023-04-05T05:25:34.805Z,14.00
2023-04-05T05:28:02.909Z,14.01
2023-04-05T05:30:31.955Z,14.00
2023-04-05T05:33:00.097Z,13.96
2023-04-05T05:35:29.441Z,13.97
2023-04-05T05:37:57.659Z,13.94
2023-04-05T05:40:27.122Z,13.88
2023-04-05T05:42:55.079Z,13.87
2023-04-05T05:45:23.203Z,13.89
2023-04-05T05:47:51.209Z,13.88
2023-04-05T05:50:20.669Z,13.81
2023-04-05T05:52:50.755Z,13.67
2023-04-05T05:55:18.965Z,13.57
2023-04-05T05:57:46.980Z,13.55
2023-04-05T06:00:16.500Z,13.59
2023-04-05T06:02:44.741Z,13.64
2023-04-05T06:05:12.998Z,13.65
2023-04-05T06:07:41.220Z,13.73
2023-04-05T06:10:12.004Z,13.79
2023-04-05T06:12:39.944Z,13.84
2023-04-05T06:15:09.199Z,13.87
2023-04-05T06:17:42.039Z,13.91
2023-04-05T06:20:13.777Z,13.94
2023-04-05T06:22:41.987Z,13.94
2023-04-05T06:25:12.986Z,13.91
2023-04-05T06:27:41.192Z,13.90
2023-04-05T06:30:10.092Z,13.87
2023-04-05T06:32:38.096Z,13.82
2023-04-05T06:35:07.328Z,13.83
2023-04-05T06:37:35.378Z,13.83
2023-04-05T06:40:03.475Z,13.85
2023-04-05T06:42:33.051Z,13.85
2023-04-05T06:45:05.635Z,13.86
2023-04-05T06:47:35.227Z,13.88
2023-04-05T06:50:03.392Z,13.90
2023-04-05T06:52:31.409Z,13.91
2023-04-05T06:54:59.351Z,13.89
2023-04-05T06:57:27.417Z,13.89
2023-04-05T06:59:56.810Z,13.91
2023-04-05T07:02:24.817Z,13.94
2023-04-05T07:04:53.503Z,13.95
2023-04-05T07:07:22.579Z,13.91
2023-04-05T07:09:50.800Z,13.86
2023-04-05T07:12:18.747Z,13.84
2023-04-05T07:14:46.773Z,13.87
2023-04-05T07:17:16.282Z,13.88
2023-04-05T07:19:44.332Z,13.93
2023-04-05T07:22:12.354Z,13.95
2023-04-05T07:24:40.340Z,13.97
2023-04-05T07:27:08.529Z,14.00
2023-04-05T07:29:40.656Z,14.01
2023-04-05T07:32:09.071Z,14.05
2023-04-05T07:34:38.813Z,14.01
2023-04-05T07:37:06.904Z,14.05
2023-04-05T07:39:35.055Z,14.03
2023-04-05T07:42:02.984Z,14.02
2023-04-05T07:44:30.999Z,14.00
2023-04-05T07:46:59.199Z,14.05
2023-04-05T07:49:27.794Z,14.08
2023-04-05T07:51:57.708Z,14.09
2023-04-05T07:54:25.838Z,14.14
2023-04-05T07:56:55.413Z,14.17
2023-04-05T07:59:23.524Z,14.21
2023-04-05T08:01:53.927Z,14.25
2023-04-05T08:04:26.280Z,14.30
2023-04-05T08:06:54.485Z,14.31
2023-04-05T08:09:23.844Z,14.24
2023-04-05T08:11:51.879Z,14.20
2023-04-05T08:14:19.962Z,14.18
2023-04-05T08:16:49.531Z,14.18
2023-04-05T08:19:18.016Z,14.08
2023-04-05T08:21:46.182Z,13.94
2023-04-05T08:24:14.500Z,13.97
2023-04-05T08:26:44.167Z,13.97
2023-04-05T08:29:12.363Z,14.00
2023-04-05T08:31:40.509Z,14.01
2023-04-05T08:34:08.593Z,14.05
2023-04-05T08:36:37.063Z,14.08
2023-04-05T08:39:05.483Z,14.15
2023-04-05T08:41:36.577Z,14.20
2023-04-05T08:44:07.102Z,14.30
2023-04-05T08:46:35.601Z,14.37
2023-04-05T08:49:06.372Z,14.38
2023-04-05T08:51:34.512Z,14.43
2023-04-05T08:54:02.952Z,14.45
2023-04-05T08:56:33.380Z,14.52
2023-04-05T08:59:04.135Z,14.60
2023-04-05T09:01:34.427Z,14.66
2023-04-05T09:04:03.705Z,14.67
2023-04-05T09:06:31.914Z,14.71
2023-04-05T09:09:00.092Z,14.76
2023-04-05T09:11:28.238Z,14.80
2023-04-05T09:13:56.224Z,14.88
2023-04-05T09:16:24.329Z,14.94
2023-04-05T09:18:53.725Z,14.94
2023-04-05T09:21:23.503Z,14.94
2023-04-05T09:23:56.114Z,14.98
2023-04-05T09:26:25.267Z,15.06
2023-04-05T09:28:57.910Z,15.12
2023-04-05T09:31:33.003Z,15.20
2023-04-05T09:34:03.633Z,15.26
2023-04-05T09:36:32.984Z,15.30
2023-04-05T09:39:09.000Z,15.36
2023-04-05T09:41:37.511Z,15.45
2023-04-05T09:44:06.179Z,15.51
2023-04-05T09:46:35.588Z,15.55
2023-04-05T09:49:07.275Z,15.59
2023-04-05T09:51:35.853Z,15.70
2023-04-05T09:54:06.801Z,15.71
2023-04-05T09:56:35.608Z,15.75
2023-04-05T09:59:04.704Z,15.79
2023-04-05T10:01:32.910Z,15.82
2023-04-05T10:04:01.364Z,15.86
2023-04-05T10:06:40.633Z,15.86
2023-04-05T10:09:09.579Z,15.85
2023-04-05T10:11:38.125Z,15.82
2023-04-05T10:14:06.849Z,15.79
2023-04-05T10:16:46.556Z,15.78
2023-04-05T10:19:17.635Z,15.75
2023-04-05T10:21:47.117Z,15.74
2023-04-05T10:24:19.770Z,15.73
2023-04-05T10:26:56.240Z,15.76
2023-04-05T10:29:27.260Z,15.78
2023-04-05T10:31:58.442Z,15.74
2023-04-05T10:34:31.447Z,15.67
2023-04-05T10:37:02.750Z,15.65
2023-04-05T10:39:31.331Z,15.62
2023-04-05T10:42:04.124Z,15.58
2023-04-05T10:44:33.434Z,15.63
2023-04-05T10:47:03.237Z,15.71
2023-04-05T10:49:35.335Z,15.84
2023-04-05T10:52:04.833Z,15.93
2023-04-05T10:54:34.270Z,16.05
2023-04-05T10:57:02.772Z,16.17
2023-04-05T10:59:31.315Z,16.20
2023-04-05T11:01:59.680Z,16.16
2023-04-05T11:04:28.035Z,16.11
2023-04-05T11:07:16.893Z,16.08
2023-04-05T11:09:56.015Z,16.07
2023-04-05T11:12:57.218Z,16.05
2023-04-05T11:15:33.047Z,16.00
2023-04-05T11:18:10.618Z,15.91
2023-04-05T11:20:48.445Z,15.83
2023-04-05T11:23:18.801Z,15.73
2023-04-05T11:25:53.187Z,15.68
2023-04-05T11:28:25.593Z,15.63
2023-04-05T11:30:57.035Z,15.66
2023-04-05T11:33:38.423Z,15.70
2023-04-05T11:36:06.985Z,15.69
2023-04-05T11:38:37.319Z,15.60
2023-04-05T11:41:17.804Z,15.59
2023-04-05T11:43:47.464Z,15.54
2023-04-05T11:46:23.369Z,15.53
2023-04-05T11:48:51.448Z,15.51
2023-04-05T11:51:20.034Z,15.57
2023-04-05T11:53:49.457Z,15.58
2023-04-05T11:56:17.491Z,15.59
2023-04-05T11:58:45.769Z,15.56
2023-04-05T12:01:14.722Z,15.54
2023-04-05T12:03:42.817Z,15.56
2023-04-05T12:06:11.006Z,15.58
2023-04-05T12:08:39.931Z,15.57
2023-04-05T12:11:10.207Z,15.59
2023-04-05T12:13:38.507Z,15.61
2023-04-05T12:16:07.908Z,15.66
2023-04-05T12:18:36.883Z,15.69
2023-04-05T12:21:07.620Z,15.80
2023-04-05T12:23:38.260Z,15.90
2023-04-05T12:26:09.003Z,15.94
2023-04-05T12:28:57.888Z,15.95
2023-04-05T12:31:39.759Z,15.95
2023-04-05T12:34:08.066Z,15.98
2023-04-05T12:36:36.339Z,16.01
2023-04-05T12:39:07.770Z,16.02
2023-04-05T12:41:37.953Z,16.01
2023-04-05T12:44:13.099Z,16.00
2023-04-05T12:46:41.706Z,16.03
2023-04-05T12:49:12.196Z,16.02
2023-04-05T12:51:43.587Z,16.04
2023-04-05T12:54:13.415Z,16.01
2023-04-05T12:56:42.937Z,15.99
2023-04-05T12:59:13.432Z,15.95
2023-04-05T13:01:44.424Z,15.93
2023-04-05T13:04:23.398Z,15.87
2023-04-05T13:06:51.808Z,15.78
2023-04-05T13:09:19.866Z,15.72
2023-04-05T13:11:49.970Z,15.69
2023-04-05T13:14:18.010Z,15.70
2023-04-05T13:16:46.220Z,15.69
2023-04-05T13:19:14.275Z,15.69
2023-04-05T13:21:42.762Z,15.82
2023-04-05T13:24:12.791Z,15.85
2023-04-05T13:26:41.365Z,15.84
2023-04-05T13:29:11.081Z,15.83
2023-04-05T13:31:40.914Z,15.84
2023-04-05T13:34:09.192Z,15.78
2023-04-05T13:36:37.248Z,15.82
2023-04-05T13:39:05.430Z,15.85
2023-04-05T13:41:33.397Z,15.84
2023-04-05T13:44:02.905Z,15.82
2023-04-05T13:46:35.589Z,15.85
2023-04-05T13:49:04.230Z,15.89
2023-04-05T13:51:34.515Z,15.89
2023-04-05T13:54:11.698Z,15.94
2023-04-05T13:56:40.087Z,15.99
2023-04-05T13:59:08.325Z,16.04
2023-04-05T14:01:38.078Z,16.10
2023-04-05T14:04:09.211Z,16.13
2023-04-05T14:06:39.364Z,16.15
2023-04-05T14:09:08.892Z,16.15
2023-04-05T14:11:37.054Z,16.11
2023-04-05T14:14:05.099Z,16.09
2023-04-05T14:16:34.583Z,16.15
2023-04-05T14:19:04.016Z,16.07
2023-04-05T14:21:34.212Z,16.09
2023-04-05T14:24:02.347Z,16.06
2023-04-05T14:26:32.092Z,16.05
2023-04-05T14:29:00.141Z,16.04
2023-04-05T14:31:28.522Z,16.01
2023-04-05T14:33:58.028Z,16.01
2023-04-05T14:36:35.010Z,15.97
2023-04-05T14:39:05.131Z,15.94
2023-04-05T14:41:33.367Z,15.91
2023-04-05T14:44:02.380Z,15.91
2023-04-05T14:46:30.734Z,15.93
2023-04-05T14:48:58.759Z,15.93
2023-04-05T14:51:31.920Z,15.94
2023-04-05T14:53:59.999Z,15.95
2023-04-05T14:56:27.990Z,15.99
2023-04-05T14:58:56.214Z,16.00
2023-04-05T15:01:24.309Z,16.00
2023-04-05T15:03:54.000Z,16.04
2023-04-05T15:06:22.122Z,16.04
2023-04-05T15:08:52.855Z,16.09
2023-04-05T15:11:22.172Z,16.12
2023-04-05T15:13:51.479Z,16.13
2023-04-05T15:16:19.600Z,16.14
2023-04-05T15:18:48.103Z,16.16
2023-04-05T15:21:16.087Z,16.17
2023-04-05T15:23:44.388Z,16.16
2023-04-05T15:26:14.132Z,16.11
2023-04-05T15:28:42.116Z,16.02
2023-04-05T15:31:10.404Z,15.95
2023-04-05T15:33:38.471Z,15.93
2023-04-05T15:36:07.669Z,15.85
2023-04-05T15:38:35.725Z,15.78
2023-04-05T15:41:04.138Z,15.77
2023-04-05T15:43:34.827Z,15.77
2023-04-05T15:46:07.855Z,15.73
2023-04-05T15:48:36.073Z,15.74
2023-04-05T15:51:06.930Z,15.74
2023-04-05T15:53:36.419Z,15.77
2023-04-05T15:56:04.462Z,15.81
2023-04-05T15:58:32.477Z,15.84
2023-04-05T16:01:01.987Z,15.82
2023-04-05T16:03:30.408Z,15.79
2023-04-05T16:05:58.572Z,15.79
2023-04-05T16:08:27.078Z,15.81
2023-04-05T16:10:56.660Z,15.78
2023-04-05T16:13:24.815Z,15.82
2023-04-05T16:15:52.813Z,15.85
2023-04-05T16:18:23.842Z,15.83
2023-04-05T16:20:52.192Z,15.83
2023-04-05T16:23:20.369Z,15.82
2023-04-05T16:25:48.472Z,15.81
2023-04-05T16:28:17.088Z,15.77
2023-04-05T16:30:47.172Z,15.76
2023-04-05T16:33:16.383Z,15.76
2023-04-05T16:35:46.558Z,15.78
2023-04-05T16:38:14.627Z,15.76
2023-04-05T16:40:42.588Z,15.72
2023-04-05T16:43:11.082Z,15.75
2023-04-05T16:45:39.992Z,15.75
2023-04-05T16:48:08.816Z,15.75
2023-04-05T16:50:37.464Z,15.77
2023-04-05T16:53:06.905Z,15.81
2023-04-05T16:55:35.537Z,15.84
2023-04-05T16:58:04.776Z,15.88
2023-04-05T17:00:33.675Z,15.90
2023-04-05T17:03:02.378Z,15.91
2023-04-05T17:05:31.709Z,15.91
2023-04-05T17:07:59.744Z,15.90
2023-04-05T17:10:29.740Z,15.89
2023-04-05T17:12:57.766Z,15.90
2023-04-05T17:15:26.310Z,15.90
2023-04-05T17:17:54.394Z,15.93
2023-04-05T17:20:23.216Z,15.92
2023-04-05T17:22:51.405Z,15.89
2023-04-05T17:25:19.675Z,15.89
2023-04-05T17:27:49.208Z,15.88
2023-04-05T17:30:17.635Z,15.86
2023-04-05T17:32:45.723Z,15.83
2023-04-05T17:35:13.722Z,15.81
2023-04-05T17:37:41.742Z,15.79
2023-04-05T17:40:10.702Z,15.79
2023-04-05T17:42:38.697Z,15.79
2023-04-05T17:45:09.835Z,15.74
2023-04-05T17:47:38.427Z,15.75
2023-04-05T17:50:07.353Z,15.72
2023-04-05T17:52:35.645Z,15.67
2023-04-05T17:55:04.229Z,15.62
2023-04-05T17:57:32.232Z,15.56
2023-04-05T18:00:00.328Z,15.51
2023-04-05T18:02:29.794Z,15.44
2023-04-05T18:05:00.208Z,15.38
2023-04-05T18:07:28.579Z,15.31
2023-04-05T18:09:58.236Z,15.26
2023-04-05T18:12:28.848Z,15.25
2023-04-05T18:14:57.177Z,15.22
2023-04-05T18:17:25.627Z,15.21
2023-04-05T18:19:55.044Z,15.19
2023-04-05T18:22:23.084Z,15.19
2023-04-05T18:24:52.093Z,15.19
2023-04-05T18:27:20.143Z,15.17
2023-04-05T18:29:48.560Z,15.20
2023-04-05T18:32:17.682Z,15.19
2023-04-05T18:34:45.896Z,15.20
2023-04-05T18:37:15.264Z,15.17
2023-04-05T18:39:45.781Z,15.17
2023-04-05T18:42:16.237Z,15.17
2023-04-05T18:44:48.194Z,15.18
2023-04-05T18:47:16.421Z,15.19
2023-04-05T18:49:44.426Z,15.19
2023-04-05T18:52:14.256Z,15.22
2023-04-05T18:54:43.580Z,15.20
2023-04-05T18:57:11.796Z,15.19
2023-04-05T18:59:40.041Z,15.19
2023-04-05T19:02:08.328Z,15.19
2023-04-05T19:04:36.632Z,15.20
2023-04-05T19:07:06.263Z,15.23
2023-04-05T19:09:34.518Z,15.26
2023-04-05T19:12:04.330Z,15.30
2023-04-05T19:14:32.442Z,15.31
2023-04-05T19:17:01.675Z,15.31
2023-04-05T19:19:29.694Z,15.33
2023-04-05T19:21:57.870Z,15.35
2023-04-05T19:24:26.001Z,15.36
2023-04-05T19:26:56.879Z,15.35
2023-04-05T19:29:27.478Z,15.38
2023-04-05T19:31:55.986Z,15.38
2023-04-05T19:34:29.405Z,15.39
2023-04-05T19:36:57.593Z,15.38
2023-04-05T19:39:25.788Z,15.39
2023-04-05T19:41:55.085Z,15.39
2023-04-05T19:44:39.793Z,15.43
2023-04-05T19:47:13.911Z,15.43
2023-04-05T19:49:42.504Z,15.43
2023-04-05T19:52:12.308Z,15.44
2023-04-05T19:54:40.410Z,15.45
2023-04-05T19:57:09.878Z,15.46
2023-04-05T19:59:39.945Z,15.46
2023-04-05T20:02:12.411Z,15.46
2023-04-05T20:04:41.777Z,15.46
2023-04-05T20:07:10.554Z,15.46
2023-04-05T20:09:40.249Z,15.48
2023-04-05T20:12:09.095Z,15.48
2023-04-05T20:14:41.280Z,15.45
2023-04-05T20:17:12.320Z,15.44
2023-04-05T20:19:41.485Z,15.40
2023-04-05T20:22:10.998Z,15.40
2023-04-05T20:24:40.439Z,15.42
2023-04-05T20:27:08.467Z,15.46
2023-04-05T20:29:36.568Z,15.47
2023-04-05T20:32:06.464Z,15.45
2023-04-05T20:34:35.464Z,15.46
2023-04-05T20:37:04.383Z,15.44
2023-04-05T20:39:32.392Z,15.41
2023-04-05T20:42:00.543Z,15.41
2023-04-05T20:44:31.473Z,15.40
2023-04-05T20:47:01.352Z,15.40
2023-04-05T20:49:35.518Z,15.39
2023-04-05T20:52:07.636Z,15.39
2023-04-05T20:54:40.291Z,15.42
2023-04-05T20:57:09.785Z,15.44
2023-04-05T20:59:37.809Z,15.44
2023-04-05T21:02:06.128Z,15.44
2023-04-05T21:04:35.960Z,15.45
2023-04-05T21:07:05.321Z,15.46
2023-04-05T21:09:33.584Z,15.47
2023-04-05T21:12:01.875Z,15.47
2023-04-05T21:14:31.670Z,15.50
2023-04-05T21:16:59.986Z,15.51
2023-04-05T21:19:28.501Z,15.51
2023-04-05T21:21:59.164Z,15.54
2023-04-05T21:24:27.227Z,15.55
2023-04-05T21:26:56.499Z,15.54
2023-04-05T21:29:24.582Z,15.52
2023-04-05T21:31:54.625Z,15.50
2023-04-05T21:34:25.504Z,15.49
2023-04-05T21:36:53.765Z,15.50
2023-04-05T21:39:25.538Z,15.49
2023-04-05T21:41:53.891Z,15.51
2023-04-05T21:44:21.882Z,15.53
2023-04-05T21:46:49.993Z,15.54
2023-04-05T21:49:19.419Z,15.53
2023-04-05T21:51:47.442Z,15.53
2023-04-05T21:54:16.337Z,15.55
2023-04-05T21:56:46.188Z,15.56
2023-04-05T21:59:15.500Z,15.58
2023-04-05T22:01:44.461Z,15.61
2023-04-05T22:04:13.219Z,15.60
2023-04-05T22:06:42.870Z,15.60
2023-04-05T22:09:11.171Z,15.60
2023-04-05T22:11:39.186Z,15.61
2023-04-05T22:14:09.799Z,15.61
2023-04-05T22:16:38.584Z,15.64
2023-04-05T22:19:07.925Z,15.63
2023-04-05T22:21:36.149Z,15.64
2023-04-05T22:24:05.475Z,15.63
2023-04-05T22:26:34.144Z,15.63
2023-04-05T22:29:02.337Z,15.61
2023-04-05T22:31:31.770Z,15.60
2023-04-05T22:34:01.089Z,15.60
2023-04-05T22:36:32.121Z,15.62
2023-04-05T22:39:00.153Z,15.65
2023-04-05T22:41:28.136Z,15.65
2023-04-05T22:43:56.085Z,15.63
2023-04-05T22:46:24.248Z,15.61
2023-04-05T22:48:53.723Z,15.61
2023-04-05T22:51:23.101Z,15.60
2023-04-05T22:53:53.694Z,15.57
2023-04-05T22:56:24.153Z,15.56
2023-04-05T22:58:52.237Z,15.57
2023-04-05T23:01:20.263Z,15.59
2023-04-05T23:03:48.527Z,15.60
2023-04-05T23:06:18.160Z,15.65
2023-04-05T23:08:46.277Z,15.65
2023-04-05T23:11:14.270Z,15.63
2023-04-05T23:13:42.403Z,15.59
2023-04-05T23:16:10.493Z,15.56
2023-04-05T23:18:38.483Z,15.51
2023-04-05T23:21:06.745Z,15.45
2023-04-05T23:23:36.368Z,15.39
2023-04-05T23:26:04.511Z,15.35
2023-04-05T23:28:32.538Z,15.22
2023-04-05T23:31:01.957Z,15.17
2023-04-05T23:33:30.516Z,15.11
2023-04-05T23:35:58.589Z,15.00
2023-04-05T23:38:26.923Z,14.87
2023-04-05T23:40:58.033Z,14.86
2023-04-05T23:43:26.410Z,14.87
2023-04-05T23:45:54.332Z,14.83
2023-04-05T23:48:22.570Z,14.84
2023-04-05T23:50:50.745Z,14.84
2023-04-05T23:53:18.713Z,14.78
2023-04-05T23:55:47.280Z,14.64
2023-04-05T23:58:16.944Z,14.58
